Steelton, Pennsylvania
Current Conditions -  °F | °C
As of 8:56 AM on Saturday 25 Oct 2014 (Local Time) from KCXY Reporting Station
Clear Clear  
Wind Chill: 51°   Ceiling: Unl
Heat Index: 51°   Visibility: 10mi
Dew Point: 40°   Wind: 9mph
Humidity: 66%   Direction: 260°W
Pressure: 29.94"   Gusts: NA
Location:  40.2333°N, 76.8237°W
Report Text: KCXY 251256Z 26008KT 10SM CLR 11/04 A2994 RMK AO2 SLP138 T01060044
Loading
Personal Weather Stations






























Interactive Weather Map
Tropical Storm Tracking
New forecast layout! Learn more

10-Day Weather Forecast

Advertisements
Track Severe Weather on mobile